Time;durP1;ratioP1;P1;durP2;ratioP2;P2;SDS_P1;SDS_P2;PMS_P1;PMS_P2;Temp;Humidity;BMP_temperature;BMP_pressure;BME280_temperature;BME280_humidity;BME280_pressure;Samples;Min_cycle;Max_cycle;Signal;HPM_P1;HPM_P2
2023/01/28 00:02:01;;;;;;;5.00;4.50;;;;;;;6.06;58.72;101430.66;5050561;28;20383;-61
2023/01/28 00:04:28;;;;;;;6.85;4.72;;;;;;;6.06;58.74;101430.66;5049045;28;20057;-61
2023/01/28 00:06:55;;;;;;;4.80;4.15;;;;;;;6.08;58.99;101435.94;5051836;28;20067;-60
2023/01/28 00:09:23;;;;;;;5.97;4.40;;;;;;;6.04;58.32;101432.84;5050332;28;20065;-60
2023/01/28 00:11:50;;;;;;;5.88;4.70;;;;;;;6.02;58.19;101446.09;5048156;28;20049;-61
2023/01/28 00:14:17;;;;;;;5.75;5.10;;;;;;;5.99;58.36;101443.03;5049941;28;20831;-58
2023/01/28 00:16:46;;;;;;;5.07;4.55;;;;;;;6.03;58.91;101433.13;5049658;28;20405;-60
2023/01/28 00:19:13;;;;;;;6.18;4.72;;;;;;;6.01;58.94;101446.38;5047286;28;20045;-61
2023/01/28 00:21:40;;;;;;;5.40;4.53;;;;;;;5.99;59.21;101438.34;5050597;28;20053;-61
2023/01/28 00:24:08;;;;;;;5.60;4.57;;;;;;;6.00;58.83;101428.94;5049612;28;20056;-59
2023/01/28 00:26:36;;;;;;;5.35;4.85;;;;;;;5.99;58.45;101432.81;5049177;28;20052;-61
2023/01/28 00:29:05;;;;;;;5.88;4.95;;;;;;;5.97;58.81;101425.88;5050071;28;20049;-60
2023/01/28 00:31:34;;;;;;;5.25;4.75;;;;;;;5.91;59.12;101433.25;5051792;28;20498;-61
2023/01/28 00:34:02;;;;;;;5.65;5.05;;;;;;;5.96;58.96;101435.25;5050405;28;20057;-60
2023/01/28 00:36:32;;;;;;;5.50;4.90;;;;;;;5.99;58.70;101426.44;5032211;28;20061;-60
2023/01/28 00:39:00;;;;;;;6.45;5.53;;;;;;;5.98;59.10;101420.06;5031647;28;20482;-60
2023/01/28 00:41:29;;;;;;;5.43;4.93;;;;;;;6.01;58.43;101429.78;5044571;28;20044;-60
2023/01/28 00:43:58;;;;;;;5.88;5.00;;;;;;;5.95;58.47;101423.38;5050945;28;20049;-60
2023/01/28 00:46:26;;;;;;;5.43;4.90;;;;;;;5.95;58.15;101420.59;5051917;28;20049;-61
2023/01/28 00:48:54;;;;;;;5.95;5.00;;;;;;;5.91;58.18;101433.25;5051796;28;20060;-61
2023/01/28 00:51:22;;;;;;;6.72;5.55;;;;;;;5.91;58.31;101430.47;5050073;28;20057;-60
2023/01/28 00:53:50;;;;;;;6.78;5.43;;;;;;;5.92;57.97;101431.31;5051656;28;20398;-60
2023/01/28 00:56:19;;;;;;;5.43;4.90;;;;;;;5.89;58.41;101433.50;5051647;28;20057;-60
2023/01/28 00:58:47;;;;;;;5.43;4.90;;;;;;;5.90;58.37;101431.59;5055300;28;20068;-61
2023/01/28 01:01:16;;;;;;;5.50;5.00;;;;;;;5.91;58.44;101436.00;5055113;28;20405;-61
2023/01/28 01:03:44;;;;;;;5.72;4.93;;;;;;;5.92;58.71;101445.94;5053703;28;20402;-61
2023/01/28 01:06:12;;;;;;;5.18;4.68;;;;;;;5.84;57.36;101441.75;5055227;28;20045;-60
2023/01/28 01:08:41;;;;;;;5.50;5.00;;;;;;;5.82;57.43;101445.88;5054962;28;20053;-60
2023/01/28 01:11:10;;;;;;;5.13;4.63;;;;;;;5.81;57.39;101450.53;5054964;28;20057;-60
2023/01/28 01:13:38;;;;;;;6.15;5.05;;;;;;;5.80;57.43;101446.13;5054841;28;20056;-59
2023/01/28 01:16:07;;;;;;;6.85;5.07;;;;;;;5.76;57.69;101447.72;5054996;28;20418;-60
2023/01/28 01:18:35;;;;;;;5.55;4.50;;;;;;;5.71;58.17;101442.13;5053385;28;20501;-61
2023/01/28 01:21:03;;;;;;;5.70;4.97;;;;;;;5.76;58.03;101439.44;5054773;28;20052;-59
2023/01/28 01:23:31;;;;;;;5.75;4.93;;;;;;;5.77;57.74;101434.72;5054763;28;20052;-59
2023/01/28 01:26:00;;;;;;;6.18;5.13;;;;;;;5.75;57.67;101442.44;5054882;28;20064;-61
2023/01/28 01:28:28;;;;;;;5.93;4.90;;;;;;;5.77;57.55;101426.44;5054509;28;20053;-60
2023/01/28 01:31:00;;;;;;;5.95;5.00;;;;;;;5.81;57.45;101430.34;5054728;28;20068;-61
2023/01/28 01:33:28;;;;;;;6.13;4.60;;;;;;;5.76;57.80;101439.44;5053059;28;20270;-60
2023/01/28 01:35:56;;;;;;;7.18;4.65;;;;;;;5.76;57.03;101444.13;5054789;28;20055;-61
2023/01/28 01:38:23;;;;;;;4.60;4.13;;;;;;;5.75;57.00;101443.28;5054099;28;20049;-61
2023/01/28 01:40:51;;;;;;;5.68;4.30;;;;;;;5.79;57.19;101443.59;5054959;28;20049;-61
2023/01/28 01:43:22;;;;;;;4.88;4.15;;;;;;;5.79;56.90;101444.44;5053966;28;20060;-61
2023/01/28 01:45:53;;;;;;;5.32;4.05;;;;;;;5.77;57.06;101440.25;5054408;28;20060;-58
2023/01/28 01:48:24;;;;;;;4.63;4.22;;;;;;;5.80;57.26;101448.06;5052315;28;20064;-61
2023/01/28 01:50:56;;;;;;;5.47;4.70;;;;;;;5.74;57.77;101451.84;5054721;28;20391;-61
2023/01/28 01:53:26;;;;;;;7.50;4.97;;;;;;;5.72;57.94;101442.97;5054304;28;20057;-61
2023/01/28 01:55:57;;;;;;;6.90;5.75;;;;;;;5.79;57.19;101446.38;5053796;28;20049;-61
2023/01/28 01:58:32;;;;;;;5.45;4.80;;;;;;;5.74;56.77;101451.84;5054191;28;20083;-60
2023/01/28 02:00:59;;;;;;;6.63;5.18;;;;;;;5.70;56.65;101446.00;5053075;28;20057;-60
2023/01/28 02:03:32;;;;;;;5.97;4.55;;;;;;;5.69;56.73;101464.50;5053822;28;20057;-60
2023/01/28 02:05:59;;;;;;;4.63;4.00;;;;;;;5.66;57.02;101451.19;5054134;28;20060;-60
2023/01/28 02:08:29;;;;;;;5.72;4.55;;;;;;;5.68;56.37;101460.06;5053144;28;20072;-60
2023/01/28 02:11:03;;;;;;;6.95;3.92;;;;;;;5.65;55.83;101454.22;5053926;28;20064;-61
2023/01/28 02:13:39;;;;;;;5.10;3.88;;;;;;;5.66;55.63;101456.72;5053754;28;20056;-61
2023/01/28 02:16:08;;;;;;;6.43;4.93;;;;;;;5.62;55.58;101451.97;5051457;28;20236;-60
2023/01/28 02:18:36;;;;;;;5.28;4.28;;;;;;;5.59;55.57;101461.63;5053446;28;20053;-59
2023/01/28 02:21:26;;;;;;;6.82;4.50;;;;;;;5.57;55.49;101463.78;5054225;28;20525;-60
2023/01/28 02:24:15;;;;;;;4.90;4.40;;;;;;;5.54;55.47;101461.53;5051070;28;20048;-60
2023/01/28 02:27:13;;;;;;;5.90;4.03;;;;;;;5.56;55.33;101461.28;5053440;28;20072;-60
2023/01/28 02:29:47;;;;;;;4.90;4.40;;;;;;;5.52;55.64;101463.72;5052063;28;20056;-60
2023/01/28 02:32:20;;;;;;;5.25;4.28;;;;;;;5.54;55.70;101463.47;5053129;28;20053;-60
2023/01/28 02:34:52;;;;;;;5.13;4.20;;;;;;;5.51;55.77;101470.34;5053661;28;20060;-59
2023/01/28 02:37:22;;;;;;;4.53;4.13;;;;;;;5.53;56.22;101468.16;5052948;28;20060;-61
2023/01/28 02:39:55;;;;;;;5.13;4.47;;;;;;;5.52;55.77;101472.00;5053706;28;20048;-61
2023/01/28 02:42:26;;;;;;;5.45;3.80;;;;;;;5.45;55.97;101479.66;5053339;28;20053;-60
2023/01/28 02:44:55;;;;;;;4.30;3.85;;;;;;;5.47;55.64;101480.22;5012825;28;20094;-60
2023/01/28 02:50:09;;;;;;;4.63;4.00;;;;;;;5.45;55.61;101486.00;5015904;28;20468;-59
2023/01/28 02:55:43;;;;;;;5.63;4.25;;;;;;;5.39;55.68;101478.75;5007272;28;20463;-61
2023/01/28 02:58:19;;;;;;;4.82;4.35;;;;;;;5.44;55.51;101486.28;5004632;28;20050;-60
2023/01/28 03:00:54;;;;;;;4.25;3.72;;;;;;;5.43;55.20;101481.84;5013711;28;20412;-60
2023/01/28 03:03:26;;;;;;;4.28;3.55;;;;;;;5.33;55.02;101484.44;5013176;28;20046;-61
2023/01/28 03:06:05;;;;;;;5.28;3.83;;;;;;;5.33;55.52;101489.97;5013870;28;20060;-60
2023/01/28 03:36:50;;;;;;;4.20;3.63;;;;;;;5.22;55.07;101462.19;4999043;28;20507;-60
2023/01/28 03:39:20;;;;;;;5.00;3.85;;;;;;;5.19;55.29;101457.19;4993514;28;20054;-61
2023/01/28 03:41:59;;;;;;;5.32;3.67;;;;;;;5.07;54.36;101454.53;5004709;28;20130;-60
2023/01/28 03:47:14;;;;;;;5.38;4.03;;;;;;;5.00;55.50;101464.09;5058452;28;20060;-59
2023/01/28 03:49:45;;;;;;;5.05;4.55;;;;;;;5.03;56.20;101474.63;5052454;28;20053;-60
2023/01/28 03:52:13;;;;;;;4.97;4.10;;;;;;;5.08;55.90;101477.44;5052002;28;20057;-59
2023/01/28 03:54:40;;;;;;;6.45;4.72;;;;;;;5.08;56.28;101483.84;5052230;28;20470;-59
2023/01/28 03:57:07;;;;;;;7.28;4.40;;;;;;;5.11;56.05;101485.25;5051453;28;20060;-61
2023/01/28 03:59:35;;;;;;;6.85;4.35;;;;;;;5.12;56.05;101494.38;5051920;28;20482;-60
2023/01/28 04:02:03;;;;;;;4.63;4.15;;;;;;;5.17;55.82;101486.19;5052499;28;20057;-61
2023/01/28 04:04:31;;;;;;;4.35;3.70;;;;;;;5.18;55.77;101474.84;5052125;28;20045;-60
2023/01/28 04:07:00;;;;;;;4.25;3.63;;;;;;;5.17;54.61;101487.00;5051958;28;20052;-61
2023/01/28 04:09:27;;;;;;;5.28;3.78;;;;;;;5.12;55.01;101481.38;5051000;28;20067;-61
2023/01/28 04:11:54;;;;;;;6.45;4.25;;;;;;;5.11;55.11;101482.50;5052222;28;20409;-59
2023/01/28 04:14:22;;;;;;;5.72;4.60;;;;;;;5.13;55.91;101487.75;5051679;28;20056;-59
2023/01/28 04:16:49;;;;;;;6.00;5.13;;;;;;;5.14;54.67;101481.97;5052264;28;20063;-59
2023/01/28 04:19:16;;;;;;;6.38;5.22;;;;;;;5.12;54.70;101475.88;5051629;28;20052;-60
2023/01/28 04:21:43;;;;;;;8.80;5.70;;;;;;;5.07;55.46;101475.78;5052130;28;20064;-60
2023/01/28 04:24:12;;;;;;;9.63;6.45;;;;;;;5.06;55.13;101480.50;5050158;28;20049;-60
2023/01/28 04:26:40;;;;;;;9.07;6.67;;;;;;;5.11;55.29;101482.50;5031755;28;20057;-60
2023/01/28 04:29:07;;;;;;;5.82;5.22;;;;;;;5.16;55.07;101484.47;5032370;28;20483;-60
2023/01/28 04:31:34;;;;;;;7.45;6.25;;;;;;;5.15;55.80;101485.59;5031713;28;20053;-60
2023/01/28 04:34:02;;;;;;;5.55;5.05;;;;;;;5.17;55.25;101487.00;5036047;28;20050;-60
2023/01/28 04:36:29;;;;;;;5.40;4.90;;;;;;;5.08;55.53;101491.25;5035839;28;20053;-61
2023/01/28 04:38:56;;;;;;;7.10;6.40;;;;;;;5.07;56.05;101493.19;5041624;28;20056;-59
2023/01/28 04:41:25;;;;;;;7.70;5.75;;;;;;;5.13;55.73;101494.13;5053937;28;20405;-60
2023/01/28 04:43:52;;;;;;;6.82;6.13;;;;;;;5.09;55.04;101491.00;5050315;28;20055;-60
2023/01/28 04:46:20;;;;;;;7.10;6.40;;;;;;;5.05;54.69;101506.41;5035758;28;20061;-60
2023/01/28 04:48:48;;;;;;;7.72;6.95;;;;;;;5.03;55.18;101500.31;5035764;28;20058;-60
2023/01/28 04:51:15;;;;;;;8.68;7.07;;;;;;;5.09;55.14;101506.75;5035594;28;20049;-60
2023/01/28 04:53:42;;;;;;;7.85;6.68;;;;;;;5.07;54.69;101504.25;5037678;28;20489;-61
2023/01/28 04:56:10;;;;;;;8.73;7.50;;;;;;;5.09;55.53;101506.75;5055381;28;20061;-61
2023/01/28 04:58:38;;;;;;;6.45;5.85;;;;;;;5.13;55.24;101507.94;5055260;28;20505;-60
2023/01/28 05:01:05;;;;;;;7.35;6.18;;;;;;;5.14;55.20;101506.00;5055547;28;20060;-61
2023/01/28 05:03:33;;;;;;;7.63;6.38;;;;;;;5.14;54.19;101506.00;5055090;28;20060;-61
2023/01/28 05:06:00;;;;;;;9.63;7.10;;;;;;;5.09;54.25;101506.75;5055227;28;20053;-60
2023/01/28 05:08:27;;;;;;;8.13;6.47;;;;;;;5.07;54.12;101508.94;5054297;28;20051;-60
2023/01/28 05:10:54;;;;;;;8.13;6.97;;;;;;;5.06;54.64;101498.97;5055135;28;20053;-60
2023/01/28 05:13:22;;;;;;;6.47;5.88;;;;;;;4.98;54.46;101497.47;5054671;28;20049;-61
2023/01/28 05:15:54;;;;;;;7.22;6.53;;;;;;;5.00;55.55;101505.53;5055304;28;20056;-60
2023/01/28 05:18:21;;;;;;;8.52;7.28;;;;;;;4.98;55.69;101497.47;5055014;28;20053;-60
2023/01/28 05:20:48;;;;;;;8.25;7.45;;;;;;;4.97;54.98;101498.56;5055467;28;20053;-60
2023/01/28 05:23:15;;;;;;;9.55;7.03;;;;;;;4.96;55.54;101504.34;5053139;28;20052;-60
2023/01/28 05:25:44;;;;;;;8.45;7.55;;;;;;;5.00;55.23;101495.31;5054917;28;20485;-60
2023/01/28 05:28:11;;;;;;;7.88;6.88;;;;;;;5.02;55.02;101495.06;5054704;28;20053;-60
2023/01/28 05:30:39;;;;;;;9.23;7.65;;;;;;;5.01;55.19;101496.97;5054189;28;20508;-60
2023/01/28 05:33:08;;;;;;;8.98;7.85;;;;;;;5.03;55.56;101493.97;5054610;28;20049;-60
2023/01/28 05:35:35;;;;;;;8.50;7.60;;;;;;;5.07;55.17;101495.94;5054716;28;20069;-60
2023/01/28 05:38:03;;;;;;;9.02;7.30;;;;;;;5.09;54.96;101506.75;5053237;28;20075;-61
2023/01/28 05:40:30;;;;;;;9.40;6.97;;;;;;;5.04;54.66;101498.38;5054665;28;20052;-60
2023/01/28 05:42:57;;;;;;;8.45;7.30;;;;;;;5.02;54.39;101508.88;5053863;28;20067;-61
2023/01/28 05:45:24;;;;;;;10.00;7.13;;;;;;;4.98;54.41;101510.47;5053684;28;20049;-61
2023/01/28 05:47:52;;;;;;;8.52;7.10;;;;;;;4.96;54.33;101512.63;5054561;28;20513;-60
2023/01/28 05:50:21;;;;;;;8.70;7.70;;;;;;;4.87;54.46;101510.28;5054252;28;20057;-60
2023/01/28 05:52:48;;;;;;;8.23;7.10;;;;;;;4.88;55.01;101513.88;5052561;28;20057;-61
2023/01/28 05:55:15;;;;;;;9.20;7.68;;;;;;;4.94;54.84;101520.31;5054224;28;20041;-61
2023/01/28 05:57:43;;;;;;;8.27;7.40;;;;;;;4.96;54.54;101524.50;5054199;28;20406;-59
2023/01/28 06:00:12;;;;;;;9.65;7.40;;;;;;;4.88;54.72;101534.03;5050626;28;20049;-60
2023/01/28 06:02:39;;;;;;;8.55;7.75;;;;;;;4.92;55.01;101534.38;5043917;28;20064;-60
2023/01/28 06:05:07;;;;;;;8.63;7.28;;;;;;;4.94;54.42;101536.91;5036843;28;20052;-61
2023/01/28 06:07:36;;;;;;;8.23;7.45;;;;;;;4.91;54.25;101545.66;5042203;28;20053;-61
2023/01/28 06:10:03;;;;;;;8.73;7.43;;;;;;;4.90;54.82;101535.72;5034159;28;20101;-59
2023/01/28 06:12:31;;;;;;;8.88;7.45;;;;;;;4.88;54.72;101531.25;5033664;28;20068;-60
2023/01/28 06:14:58;;;;;;;8.77;7.18;;;;;;;4.90;54.20;101538.47;5038058;28;20041;-61
2023/01/28 06:17:25;;;;;;;7.93;7.13;;;;;;;4.88;53.89;101538.72;5053723;28;20387;-60
2023/01/28 06:19:52;;;;;;;7.95;7.15;;;;;;;4.90;54.15;101531.03;5050624;28;20071;-60
2023/01/28 06:22:20;;;;;;;8.75;7.65;;;;;;;4.83;53.93;101535.84;5050421;28;20072;-59
2023/01/28 06:24:48;;;;;;;9.25;7.45;;;;;;;4.83;53.87;101531.19;5042686;28;20484;-61
2023/01/28 06:27:16;;;;;;;8.00;7.20;;;;;;;4.81;54.28;101538.88;5036793;28;20485;-59
2023/01/28 06:29:43;;;;;;;8.18;7.38;;;;;;;4.76;53.61;101536.03;5052320;28;20393;-60
2023/01/28 06:32:10;;;;;;;9.13;8.23;;;;;;;4.78;53.99;101533.84;5047428;28;20408;-61
2023/01/28 06:34:38;;;;;;;8.98;6.72;;;;;;;4.72;53.43;101545.06;5047358;28;20056;-60
2023/01/28 06:37:05;;;;;;;8.32;7.30;;;;;;;4.70;53.11;101537.00;5051906;28;20057;-61
2023/01/28 06:39:32;;;;;;;7.22;6.03;;;;;;;4.72;53.47;101534.84;5052881;28;20416;-61
2023/01/28 06:42:01;;;;;;;7.97;5.97;;;;;;;4.71;54.20;101535.13;5045820;28;20060;-61
2023/01/28 06:44:28;;;;;;;7.97;6.55;;;;;;;4.74;53.47;101532.66;5033028;28;20064;-60
2023/01/28 06:46:55;;;;;;;8.02;6.88;;;;;;;4.72;53.24;101534.84;5047664;28;20052;-61
2023/01/28 06:49:25;;;;;;;7.30;6.57;;;;;;;4.72;54.06;101540.38;5051339;28;20052;-59
2023/01/28 06:51:53;;;;;;;8.90;7.03;;;;;;;4.75;54.29;101541.81;5046615;28;20057;-60
2023/01/28 06:54:20;;;;;;;7.90;7.10;;;;;;;4.77;53.77;101545.16;5038010;28;20053;-60
2023/01/28 06:56:47;;;;;;;6.95;6.25;;;;;;;4.72;53.59;101553.34;5045206;28;20045;-60
2023/01/28 06:59:16;;;;;;;7.07;5.88;;;;;;;4.77;53.50;101548.75;5044997;28;20063;-60
2023/01/28 07:01:43;;;;;;;7.88;6.55;;;;;;;4.87;53.72;101548.94;5051431;28;20052;-60
2023/01/28 07:04:10;;;;;;;7.45;6.20;;;;;;;4.87;53.63;101537.03;5033123;28;20080;-59
2023/01/28 07:06:37;;;;;;;7.28;6.28;;;;;;;4.86;52.84;101543.66;5050931;28;20401;-60
2023/01/28 07:09:05;;;;;;;6.30;5.70;;;;;;;4.89;52.83;101534.84;5053006;28;20072;-60
2023/01/28 07:11:32;;;;;;;6.82;6.13;;;;;;;4.88;53.26;101535.97;5035386;28;20060;-60
2023/01/28 07:13:59;;;;;;;6.57;5.97;;;;;;;4.84;53.28;101534.78;5033191;28;20053;-60
2023/01/28 07:16:28;;;;;;;6.13;5.53;;;;;;;4.83;52.99;101533.09;5032827;28;20049;-60
2023/01/28 07:18:56;;;;;;;7.18;6.07;;;;;;;4.80;53.23;101525.31;5048933;28;20060;-60
2023/01/28 07:21:23;;;;;;;7.22;6.00;;;;;;;4.79;52.89;101529.19;5050345;28;20057;-58
2023/01/28 07:23:50;;;;;;;6.57;5.35;;;;;;;4.78;52.53;101528.31;5047577;28;20420;-61
2023/01/28 07:26:18;;;;;;;5.90;5.30;;;;;;;4.75;53.23;101528.84;5049004;28;20049;-61
2023/01/28 07:28:46;;;;;;;8.32;6.15;;;;;;;4.77;53.81;101532.19;5051224;28;20052;-59
2023/01/28 07:31:13;;;;;;;5.90;5.30;;;;;;;4.83;52.37;101527.56;5052862;28;20061;-60
2023/01/28 07:33:42;;;;;;;6.22;5.63;;;;;;;4.71;52.08;101538.69;5050899;28;20052;-60
2023/01/28 07:36:09;;;;;;;5.97;4.93;;;;;;;4.71;52.40;101533.19;5051155;28;20053;-60
2023/01/28 07:38:36;;;;;;;7.10;5.78;;;;;;;4.73;51.76;101533.78;5051781;28;20053;-59
2023/01/28 07:41:04;;;;;;;5.78;5.10;;;;;;;4.76;51.95;101524.97;5051431;28;20049;-59
2023/01/28 07:43:31;;;;;;;6.65;5.22;;;;;;;4.75;51.75;101530.78;5033113;28;20049;-58
2023/01/28 07:46:00;;;;;;;6.68;5.80;;;;;;;4.80;52.30;101541.88;5032379;28;20049;-59
2023/01/28 07:48:28;;;;;;;5.88;5.28;;;;;;;4.84;52.21;101538.38;5038300;28;20453;-59
2023/01/28 07:51:00;;;;;;;7.65;5.82;;;;;;;4.86;52.13;101536.19;5032501;28;20057;-58
2023/01/28 07:53:27;;;;;;;6.93;6.22;;;;;;;4.90;51.25;101544.00;5045493;28;20486;-59
2023/01/28 07:55:59;;;;;;;12.80;8.82;;;;;;;4.90;50.73;101544.00;5050096;28;20065;-58
2023/01/28 07:58:26;;;;;;;8.75;6.85;;;;;;;4.88;51.30;101538.72;5044396;28;20049;-60
2023/01/28 08:00:57;;;;;;;6.72;6.03;;;;;;;4.87;51.65;101548.06;5046904;28;20494;-59
2023/01/28 08:03:25;;;;;;;7.15;5.93;;;;;;;4.90;51.52;101558.63;5049658;28;20064;-58
2023/01/28 08:05:53;;;;;;;16.63;11.30;;;;;;;4.90;51.76;101560.56;5045038;28;20052;-59
2023/01/28 08:08:22;;;;;;;14.05;10.55;;;;;;;4.99;50.99;101556.28;5045299;28;20053;-58
2023/01/28 08:10:50;;;;;;;6.60;5.57;;;;;;;4.95;51.28;101561.47;5043680;28;20068;-58
2023/01/28 08:13:19;;;;;;;7.63;4.78;;;;;;;4.99;50.70;101553.53;5048924;28;20075;-59
2023/01/28 08:15:46;;;;;;;6.38;5.47;;;;;;;5.02;50.11;101556.63;5051073;28;20041;-58
2023/01/28 08:18:16;;;;;;;5.85;5.25;;;;;;;5.08;50.84;101571.34;5046298;28;20064;-58
2023/01/28 08:20:46;;;;;;;5.25;4.75;;;;;;;5.13;50.32;101568.69;5047770;28;20060;-59
2023/01/28 08:23:15;;;;;;;4.90;4.50;;;;;;;5.19;49.88;101573.22;5045620;28;20518;-59
2023/01/28 08:25:45;;;;;;;4.88;4.20;;;;;;;5.12;49.47;101572.50;5048078;28;20060;-59
2023/01/28 08:28:14;;;;;;;4.63;4.22;;;;;;;5.03;50.51;101579.56;5044730;28;20053;-57
2023/01/28 08:30:41;;;;;;;6.53;5.35;;;;;;;5.08;49.91;101602.56;5037844;28;20046;-59
2023/01/28 08:33:10;;;;;;;30.50;15.32;;;;;;;5.22;49.53;101599.47;5041815;28;20116;-58
2023/01/28 08:35:37;;;;;;;23.65;13.18;;;;;;;5.17;50.12;101602.16;5049125;28;20397;-58
2023/01/28 08:38:06;;;;;;;14.32;9.70;;;;;;;5.23;49.87;101598.41;5049188;28;20103;-58
2023/01/28 08:40:34;;;;;;;6.55;4.72;;;;;;;5.20;49.70;101596.97;5049851;28;20409;-58
2023/01/28 08:43:03;;;;;;;5.10;4.60;;;;;;;5.24;49.76;101598.13;5047149;28;20045;-59
2023/01/28 08:45:31;;;;;;;5.60;3.97;;;;;;;5.28;49.42;101602.06;5046903;28;20076;-57
2023/01/28 08:48:00;;;;;;;6.95;5.28;;;;;;;5.26;49.32;101601.47;5046830;28;20056;-58
2023/01/28 08:50:31;;;;;;;11.02;8.13;;;;;;;5.30;49.93;101610.13;5049298;28;20053;-58
2023/01/28 08:53:00;;;;;;;9.73;6.88;;;;;;;5.29;49.36;101616.72;5048206;28;20068;-58
2023/01/28 08:55:28;;;;;;;15.93;11.00;;;;;;;5.32;49.42;101620.91;5049332;28;20049;-60
2023/01/28 08:57:56;;;;;;;11.45;8.63;;;;;;;5.38;49.55;101628.22;5048115;28;20056;-59
2023/01/28 09:00:25;;;;;;;8.07;7.00;;;;;;;5.40;49.71;101632.38;5040782;28;20056;-59
2023/01/28 09:02:52;;;;;;;9.85;5.55;;;;;;;5.34;49.58;101636.16;5045323;28;20057;-58
2023/01/28 09:05:21;;;;;;;7.38;5.60;;;;;;;5.37;49.83;101634.81;5047984;28;20048;-60
2023/01/28 09:07:50;;;;;;;6.20;5.40;;;;;;;5.40;49.76;101642.59;5049447;28;20045;-60
2023/01/28 09:10:19;;;;;;;7.40;5.07;;;;;;;5.42;49.43;101648.72;5048280;28;20060;-59
2023/01/28 09:12:46;;;;;;;7.43;5.65;;;;;;;5.33;49.08;101650.22;5047875;28;20045;-59
2023/01/28 09:15:14;;;;;;;7.88;5.90;;;;;;;5.32;49.14;101660.44;5043310;28;20497;-60
2023/01/28 09:17:43;;;;;;;9.52;7.32;;;;;;;5.26;49.54;101653.13;5046211;28;20053;-60
2023/01/28 09:20:12;;;;;;;7.80;5.53;;;;;;;5.34;48.84;101660.19;5048564;28;20053;-59
2023/01/28 09:22:39;;;;;;;6.25;5.00;;;;;;;5.42;49.13;101660.59;5052712;28;20397;-59
2023/01/28 09:25:07;;;;;;;7.05;5.40;;;;;;;5.44;49.27;101663.13;5052652;28;20402;-58
2023/01/28 09:27:35;;;;;;;7.13;5.63;;;;;;;5.47;49.55;101666.19;5051854;28;20072;-59
2023/01/28 09:30:02;;;;;;;6.35;5.00;;;;;;;5.47;49.10;101665.38;5052757;28;20501;-60
2023/01/28 09:32:30;;;;;;;7.60;5.82;;;;;;;5.48;49.38;101661.50;5051474;28;20060;-60
2023/01/28 09:34:59;;;;;;;7.90;6.45;;;;;;;5.56;49.49;101663.03;5050926;28;20080;-59
2023/01/28 09:37:26;;;;;;;6.30;5.70;;;;;;;5.66;48.86;101675.06;5052395;28;20060;-60
2023/01/28 09:39:53;;;;;;;5.68;5.18;;;;;;;5.62;48.88;101665.63;5047243;28;20049;-60
2023/01/28 09:42:39;;;;;;;6.65;6.00;;;;;;;5.65;48.80;101672.59;5049416;28;20482;-60
2023/01/28 09:45:16;;;;;;;6.05;5.45;;;;;;;5.71;48.79;101668.78;5049466;28;20056;-59
2023/01/28 09:47:46;;;;;;;8.48;5.95;;;;;;;5.63;48.29;101674.75;5050564;28;20049;-60
2023/01/28 09:50:31;;;;;;;7.30;5.75;;;;;;;5.43;49.09;101681.59;5049634;28;20148;-58
2023/01/28 09:53:05;;;;;;;7.00;5.82;;;;;;;5.41;49.35;101685.72;5051238;28;20072;-60
2023/01/28 09:55:35;;;;;;;8.98;5.93;;;;;;;5.45;49.69;101684.97;5052267;28;20080;-60
2023/01/28 09:58:06;;;;;;;6.65;5.93;;;;;;;5.45;49.07;101686.88;5051927;28;20049;-60
2023/01/28 10:00:40;;;;;;;7.05;6.30;;;;;;;5.45;49.39;101689.66;5045778;28;20049;-59
2023/01/28 10:03:23;;;;;;;7.32;6.60;;;;;;;5.49;49.06;101682.53;5050094;28;20057;-58
2023/01/28 10:06:00;;;;;;;6.80;6.20;;;;;;;5.50;48.76;101675.91;5041441;28;20062;-60
2023/01/28 10:08:44;;;;;;;6.88;6.18;;;;;;;5.48;48.78;101686.38;5048712;28;20045;-60
2023/01/28 10:11:24;;;;;;;8.55;7.03;;;;;;;5.44;48.54;101688.81;5042042;28;20528;-57
2023/01/28 10:13:58;;;;;;;7.50;6.50;;;;;;;5.41;49.12;101681.00;5046044;28;20064;-61
2023/01/28 10:16:34;;;;;;;8.52;6.70;;;;;;;5.43;49.24;101689.06;5042091;28;20061;-60
2023/01/28 10:19:07;;;;;;;8.82;6.53;;;;;;;5.62;49.09;101682.19;5041079;28;20049;-60
2023/01/28 10:21:42;;;;;;;8.23;7.30;;;;;;;5.61;48.93;101680.53;5037432;28;20049;-58
2023/01/28 10:24:17;;;;;;;7.20;6.50;;;;;;;5.70;48.49;101670.72;5043708;28;20048;-60
2023/01/28 10:26:47;;;;;;;6.78;5.82;;;;;;;5.73;48.27;101671.31;5049266;28;20056;-61
2023/01/28 10:29:21;;;;;;;6.50;5.90;;;;;;;5.78;48.10;101674.16;5047692;28;20053;-60
2023/01/28 10:31:59;;;;;;;7.40;5.93;;;;;;;5.86;47.55;101668.22;5046465;28;20052;-60
2023/01/28 10:34:26;;;;;;;7.88;6.57;;;;;;;5.68;48.25;101664.59;5048195;28;20053;-59
2023/01/28 10:36:57;;;;;;;7.13;5.80;;;;;;;5.84;47.71;101656.56;5040318;28;20053;-61
2023/01/28 10:39:29;;;;;;;8.13;6.40;;;;;;;5.90;47.10;101661.09;5051050;28;20422;-58
2023/01/28 10:41:56;;;;;;;6.80;5.05;;;;;;;5.97;47.24;101650.69;5049871;28;20509;-60
2023/01/28 10:44:34;;;;;;;6.35;5.00;;;;;;;6.01;46.63;101649.09;5046492;28;20057;-60
2023/01/28 10:47:09;;;;;;;6.85;5.25;;;;;;;6.09;47.06;101654.19;5046065;28;20064;-60
2023/01/28 10:49:42;;;;;;;5.47;4.97;;;;;;;6.16;46.63;101662.31;5050415;28;20049;-59
2023/01/28 10:52:17;;;;;;;5.30;4.80;;;;;;;6.26;46.15;101665.22;5051235;28;20052;-60
2023/01/28 10:54:44;;;;;;;5.57;4.68;;;;;;;6.34;45.84;101660.31;5043803;28;20481;-60
2023/01/28 10:57:19;;;;;;;7.50;5.30;;;;;;;6.40;46.19;101660.13;5047151;28;20516;-59
2023/01/28 10:59:48;;;;;;;5.65;5.03;;;;;;;6.41;46.12;101649.91;5043344;28;20382;-59
2023/01/28 11:02:31;;;;;;;7.10;5.05;;;;;;;6.56;46.18;101661.16;5043307;28;20064;-60
2023/01/28 11:05:03;;;;;;;7.68;6.82;;;;;;;6.49;46.54;101664.13;5047152;28;20060;-63
2023/01/28 11:07:33;;;;;;;6.55;5.53;;;;;;;6.51;45.82;101661.13;5047304;28;20057;-61
2023/01/28 11:10:00;;;;;;;7.20;5.70;;;;;;;6.53;46.23;101667.22;5047840;28;20059;-62
2023/01/28 11:12:29;;;;;;;7.07;5.30;;;;;;;6.64;45.75;101671.78;5035010;28;20061;-62
2023/01/28 11:14:58;;;;;;;8.88;7.97;;;;;;;6.60;46.74;101680.88;5043727;28;20045;-60
2023/01/28 11:17:28;;;;;;;9.15;7.60;;;;;;;6.60;45.45;101678.09;5045671;28;20417;-60
2023/01/28 11:19:56;;;;;;;;;;;;;;;6.50;45.85;101681.56;5048304;28;20049;-62
2023/01/28 11:22:32;;;;;;;8.63;7.28;;;;;;;6.58;45.48;101685.81;5051676;28;19921;-62
2023/01/28 11:25:02;;;;;;;6.47;5.50;;;;;;;6.52;46.24;101684.09;5052716;28;20053;-62
2023/01/28 11:27:33;;;;;;;6.38;5.78;;;;;;;6.44;45.73;101685.34;5046611;28;20053;-61
2023/01/28 11:30:03;;;;;;;6.97;5.60;;;;;;;6.52;45.83;101681.31;5052440;28;20056;-62
2023/01/28 11:32:31;;;;;;;;;;;;;;;6.34;45.80;101688.84;5051527;28;20056;-62
2023/01/28 11:34:59;;;;;;;5.70;5.20;;;;;;;6.33;45.96;101692.69;5052543;28;19931;-62
2023/01/28 11:37:28;;;;;;;5.43;4.90;;;;;;;6.34;46.40;101691.63;5052143;28;20505;-62
2023/01/28 11:40:15;;;;;;;5.18;4.70;;;;;;;6.24;45.15;101689.53;5052365;28;20049;-62
2023/01/28 11:42:42;;;;;;;8.88;5.47;;;;;;;6.30;45.64;101687.69;5048938;28;20493;-62
2023/01/28 11:45:16;;;;;;;5.70;5.10;;;;;;;6.35;45.01;101678.59;5050100;28;20048;-61
2023/01/28 11:48:11;;;;;;;6.07;5.22;;;;;;;6.34;45.34;101675.00;5051212;28;20052;-62
2023/01/28 11:50:46;;;;;;;5.07;4.65;;;;;;;6.28;45.34;101667.75;5051493;28;20052;-62
2023/01/28 11:53:28;;;;;;;5.68;5.15;;;;;;;6.18;45.74;101678.66;5043436;28;20064;-62
2023/01/28 11:56:22;;;;;;;6.90;4.72;;;;;;;6.24;45.40;101678.47;5042799;28;20463;-62
2023/01/28 11:59:00;;;;;;;6.53;5.50;;;;;;;6.19;45.53;101677.56;5032151;28;20076;-61
2023/01/28 12:01:37;;;;;;;5.55;5.05;;;;;;;6.23;45.09;101667.66;5049694;28;20049;-62
2023/01/28 12:04:25;;;;;;;5.95;5.05;;;;;;;6.16;45.92;101669.78;5047331;28;20053;-62
2023/01/28 12:07:09;;;;;;;7.65;6.95;;;;;;;6.23;44.57;101659.34;5052127;28;20119;-62
2023/01/28 12:09:47;;;;;;;8.52;7.63;;;;;;;6.23;44.93;101654.66;5051822;28;20060;-62
2023/01/28 12:12:43;;;;;;;12.82;11.20;;;;;;;6.34;45.67;101660.31;5051204;28;20053;-62
2023/01/28 12:15:51;;;;;;;8.40;7.60;;;;;;;6.52;44.66;101656.41;5047286;28;20067;-61
2023/01/28 12:18:35;;;;;;;8.68;7.88;;;;;;;6.52;44.31;101662.78;5050242;28;20045;-62
2023/01/28 12:21:07;;;;;;;8.40;7.60;;;;;;;6.66;44.60;101666.00;5031964;28;20057;-62
2023/01/28 12:23:52;;;;;;;7.88;7.18;;;;;;;6.78;44.61;101647.28;5032091;28;20046;-57
2023/01/28 12:26:28;;;;;;;9.15;8.25;;;;;;;6.76;44.33;101652.28;5032196;28;20489;-62